Date,TemperatureHighF,TemperatureAvgF,TemperatureLowF,DewpointHighF,DewpointAvgF,DewpointLowF,HumidityHigh,HumidityAvg,HumidityLow,PressureMaxIn,PressureMinIn,WindSpeedMaxMPH,WindSpeedAvgMPH,GustSpeedMaxMPH,PrecipitationSumIn
2013-2-1,21,15,9,15,9,1,88,75,54,0.00,40.00,9,5,25,0.01
2013-2-2,18,13,9,14,7,1,88,75,64,0.00,40.00,7,4,16,0.00
2013-2-3,25,18,15,18,12,9,89,79,66,0.00,40.00,7,3,13,0.00
2013-2-4,23,17,13,17,12,7,90,79,58,0.00,40.00,6,3,12,0.00
2013-2-5,30,22,14,20,16,11,90,79,61,0.00,40.00,4,1,9,0.08
2013-2-6,32,23,12,22,15,9,93,73,41,0.00,40.00,6,3,15,0.13
2013-2-7,41,24,9,21,15,6,87,68,42,0.00,40.00,8,3,16,0.12
2013-2-8,35,29,16,33,24,11,94,82,68,0.00,40.00,10,8,22,0.20
2013-2-9,31,19,10,14,11,7,89,73,48,0.00,40.00,7,4,19,0.02
2013-2-10,49,27,5,20,11,1,87,57,22,0.00,40.00,8,3,16,0.01
2013-2-11,49,38,32,42,30,17,97,75,45,0.00,40.00,10,7,21,0.10
2013-2-12,32,30,28,25,22,20,77,72,67,0.00,40.00,7,4,20,0.04
2013-2-13,43,32,26,23,22,20,83,68,41,0.00,40.00,4,2,13,0.00
2013-2-14,35,30,22,33,26,19,95,85,76,0.00,40.00,7,5,17,0.18
2013-2-15,35,31,23,33,22,16,92,70,58,0.00,40.00,6,5,14,0.19
2013-2-16,28,21,10,16,9,2,81,60,41,0.00,40.00,6,3,12,0.00
2013-2-17,19,13,8,12,7,4,86,76,54,0.00,40.00,10,4,22,0.00
2013-2-18,37,23,4,20,10,0,85,60,33,0.00,40.00,9,4,16,0.04
2013-2-19,40,33,19,36,25,14,93,76,45,0.00,40.00,11,7,24,0.28
2013-2-20,20,17,15,15,10,6,83,72,55,0.00,40.00,8,5,27,0.02
2013-2-21,29,18,13,13,11,9,86,73,47,0.00,40.00,8,4,19,0.03
2013-2-22,32,25,15,27,19,11,89,78,55,0.00,40.00,9,5,24,0.03
2013-2-23,36,31,27,31,28,21,94,88,78,0.00,40.00,6,3,13,0.03
2013-2-24,31,27,25,22,20,16,82,73,60,0.00,40.00,7,4,17,0.03
2013-2-25,37,28,20,22,20,18,92,74,52,0.00,40.00,4,1,9,0.00
2013-2-26,39,32,23,32,24,18,93,74,54,0.00,40.00,9,5,21,0.48
2013-2-27,37,35,32,35,33,30,97,92,82,0.00,40.00,11,3,24,0.99
2013-2-28,36,32,31,31,29,27,97,89,82,0.00,40.00,5,3,12,0.22